createdAt,value
2022-08-17T00:01:52.607Z,22.00
2022-08-17T00:04:22.548Z,22.00
2022-08-17T00:06:51.107Z,22.00
2022-08-17T00:09:19.639Z,21.90
2022-08-17T00:12:40.866Z,21.90
2022-08-17T00:14:37.674Z,21.90
2022-08-17T00:17:06.517Z,22.00
2022-08-17T00:19:36.003Z,22.00
2022-08-17T00:22:31.088Z,22.00
2022-08-17T00:24:55.253Z,22.10
2022-08-17T00:27:23.480Z,22.10
2022-08-17T00:29:52.010Z,22.20
2022-08-17T00:33:14.716Z,22.20
2022-08-17T00:35:12.328Z,22.20
2022-08-17T00:37:40.793Z,22.10
2022-08-17T00:40:11.667Z,22.10
2022-08-17T00:42:40.551Z,22.00
2022-08-17T00:45:12.510Z,21.80
2022-08-17T00:47:41.682Z,21.60
2022-08-17T00:50:14.543Z,21.70
2022-08-17T00:52:49.007Z,21.80
2022-08-17T00:55:17.243Z,21.90
2022-08-17T00:57:54.653Z,22.00
2022-08-17T01:00:26.995Z,22.00
2022-08-17T01:03:00.193Z,22.10
2022-08-17T01:05:33.004Z,22.10
2022-08-17T01:08:02.983Z,22.10
2022-08-17T01:11:00.628Z,22.10
2022-08-17T01:13:25.977Z,22.10
2022-08-17T01:16:00.405Z,22.00
2022-08-17T01:18:29.096Z,22.00
2022-08-17T01:21:04.345Z,22.00
2022-08-17T01:23:34.053Z,22.00
2022-08-17T01:26:05.512Z,22.10
2022-08-17T01:28:55.110Z,22.10
2022-08-17T01:31:25.726Z,22.00
2022-08-17T01:33:54.102Z,22.00
2022-08-17T01:36:22.920Z,22.00
2022-08-17T01:38:52.483Z,21.90
2022-08-17T01:41:23.105Z,21.90
2022-08-17T01:43:55.153Z,21.90
2022-08-17T01:46:27.111Z,21.70
2022-08-17T01:48:57.591Z,21.70
2022-08-17T01:51:27.371Z,21.70
2022-08-17T01:54:00.169Z,21.80
2022-08-17T01:56:31.416Z,21.80
2022-08-17T01:58:59.498Z,21.80
2022-08-17T02:01:31.585Z,21.80
2022-08-17T02:04:01.352Z,21.70
2022-08-17T02:06:52.946Z,21.70
2022-08-17T02:09:23.267Z,21.60
2022-08-17T02:11:54.284Z,21.60
2022-08-17T02:14:23.407Z,21.50
2022-08-17T02:16:51.905Z,21.50
2022-08-17T02:19:21.947Z,21.50
2022-08-17T02:21:53.174Z,21.40
2022-08-17T02:25:01.292Z,21.50
2022-08-17T02:27:14.951Z,21.50
2022-08-17T02:29:43.073Z,21.50
2022-08-17T02:32:27.246Z,21.40
2022-08-17T02:34:56.795Z,21.40
2022-08-17T02:37:25.513Z,21.40
2022-08-17T02:39:57.059Z,21.50
2022-08-17T02:42:30.067Z,21.50
2022-08-17T02:44:58.345Z,21.40
2022-08-17T02:47:26.829Z,21.40
2022-08-17T02:49:55.839Z,21.30
2022-08-17T02:53:01.683Z,21.30
2022-08-17T02:55:19.307Z,21.20
2022-08-17T02:57:47.973Z,21.20
2022-08-17T03:00:19.193Z,21.10
2022-08-17T03:02:47.368Z,21.00
2022-08-17T03:05:17.647Z,21.10
2022-08-17T03:07:45.915Z,21.00
2022-08-17T03:10:16.447Z,21.00
2022-08-17T03:12:45.755Z,21.00
2022-08-17T03:15:16.574Z,20.90
2022-08-17T03:17:45.022Z,20.80
2022-08-17T03:20:14.520Z,20.60
2022-08-17T03:22:47.985Z,20.60
2022-08-17T03:25:26.587Z,20.70
2022-08-17T03:27:55.366Z,20.80
2022-08-17T03:30:24.505Z,20.80
2022-08-17T03:32:55.772Z,20.80
2022-08-17T03:35:26.033Z,20.70
2022-08-17T03:38:00.740Z,20.70
2022-08-17T03:40:55.890Z,20.70
2022-08-17T03:43:21.427Z,20.70
2022-08-17T03:46:10.874Z,20.70
2022-08-17T03:49:13.132Z,20.70
2022-08-17T03:51:58.831Z,20.70
2022-08-17T03:54:44.707Z,20.70
2022-08-17T03:57:14.389Z,20.70
2022-08-17T03:59:42.762Z,20.70
2022-08-17T04:02:15.302Z,20.60
2022-08-17T04:04:43.448Z,20.60
2022-08-17T04:07:11.760Z,20.60
2022-08-17T04:09:39.858Z,20.50
2022-08-17T04:12:08.220Z,20.50
2022-08-17T04:14:51.976Z,20.50
2022-08-17T04:17:23.052Z,20.50
2022-08-17T04:19:51.226Z,20.50
2022-08-17T04:22:32.868Z,20.50
2022-08-17T04:25:09.178Z,20.50
2022-08-17T04:27:37.446Z,20.50
2022-08-17T04:30:08.428Z,20.40
2022-08-17T04:33:19.178Z,20.40
2022-08-17T04:35:45.181Z,20.40
2022-08-17T04:38:16.688Z,20.50
2022-08-17T04:41:03.103Z,20.40
2022-08-17T04:43:33.114Z,20.40
2022-08-17T04:46:05.769Z,20.30
2022-08-17T04:48:37.374Z,20.10
2022-08-17T04:51:09.995Z,20.10
2022-08-17T04:53:39.714Z,20.00
2022-08-17T04:56:11.688Z,19.90
2022-08-17T04:58:44.998Z,20.10
2022-08-17T05:01:14.760Z,20.20
2022-08-17T05:03:43.156Z,20.20
2022-08-17T05:06:11.778Z,20.20
2022-08-17T05:08:39.939Z,20.10
2022-08-17T05:11:08.326Z,20.10
2022-08-17T05:13:36.396Z,20.00
2022-08-17T05:16:05.577Z,19.80
2022-08-17T05:18:35.039Z,19.60
2022-08-17T05:21:04.008Z,19.50
2022-08-17T05:23:41.993Z,19.50
2022-08-17T05:26:23.123Z,19.40
2022-08-17T05:28:55.381Z,19.30
2022-08-17T05:31:25.569Z,19.40
2022-08-17T05:33:55.072Z,19.40
2022-08-17T05:36:43.063Z,19.40
2022-08-17T05:39:17.073Z,19.40
2022-08-17T05:41:47.723Z,19.40
2022-08-17T05:44:18.206Z,19.60
2022-08-17T05:46:51.741Z,19.70
2022-08-17T05:49:28.250Z,19.70
2022-08-17T05:52:19.858Z,19.70
2022-08-17T05:54:58.580Z,19.50
2022-08-17T05:57:49.669Z,19.50
2022-08-17T06:00:30.086Z,19.50
2022-08-17T06:03:16.994Z,19.80
2022-08-17T06:06:05.942Z,19.90
2022-08-17T06:08:39.610Z,19.90
2022-08-17T06:11:16.117Z,19.80
2022-08-17T06:14:14.562Z,20.00
2022-08-17T06:16:47.446Z,20.20
2022-08-17T06:19:20.921Z,20.40
2022-08-17T06:21:53.998Z,20.50
2022-08-17T06:24:30.534Z,20.70
2022-08-17T06:27:07.686Z,20.60
2022-08-17T06:29:43.960Z,20.70
2022-08-17T06:32:14.465Z,20.90
2022-08-17T06:34:44.784Z,21.00
2022-08-17T06:37:41.410Z,21.10
2022-08-17T06:40:36.945Z,21.20
2022-08-17T06:43:25.309Z,21.30
2022-08-17T06:46:01.817Z,21.40
2022-08-17T06:48:37.534Z,21.40
2022-08-17T06:51:15.725Z,21.50
2022-08-17T06:53:49.504Z,21.60
2022-08-17T06:56:27.066Z,21.70
2022-08-17T06:59:20.689Z,21.70
2022-08-17T07:01:53.262Z,21.80
2022-08-17T07:04:26.651Z,21.90
2022-08-17T07:06:59.104Z,22.00
2022-08-17T07:09:35.067Z,22.00
2022-08-17T07:12:11.083Z,22.10
2022-08-17T07:14:41.200Z,22.10
2022-08-17T07:17:12.137Z,22.20
2022-08-17T07:19:44.115Z,22.20
2022-08-17T07:22:22.921Z,22.30
2022-08-17T07:24:57.255Z,22.30
2022-08-17T07:27:28.526Z,22.40
2022-08-17T07:30:03.749Z,22.50
2022-08-17T07:32:37.559Z,22.60
2022-08-17T07:35:16.416Z,22.60
2022-08-17T07:37:49.123Z,22.70
2022-08-17T07:40:23.594Z,22.80
2022-08-17T07:43:23.330Z,23.00
2022-08-17T07:46:35.677Z,23.00
2022-08-17T07:49:37.821Z,23.20
2022-08-17T07:52:24.960Z,23.20
2022-08-17T07:54:57.892Z,23.30
2022-08-17T07:57:38.392Z,23.30
2022-08-17T08:00:30.839Z,23.40
2022-08-17T08:03:21.828Z,23.50
2022-08-17T08:05:55.357Z,23.50
2022-08-17T08:08:29.157Z,23.60
2022-08-17T08:11:03.948Z,23.60
2022-08-17T08:13:34.385Z,23.70
2022-08-17T08:16:20.903Z,23.70
2022-08-17T08:18:55.970Z,23.80
2022-08-17T08:21:34.303Z,23.90
2022-08-17T08:24:14.433Z,24.00
2022-08-17T08:26:50.552Z,24.10
2022-08-17T08:29:30.323Z,24.20
2022-08-17T08:32:04.737Z,24.20
2022-08-17T08:35:01.096Z,24.30
2022-08-17T08:37:43.082Z,24.40
2022-08-17T08:40:26.255Z,24.40
2022-08-17T08:43:04.051Z,24.40
2022-08-17T08:45:48.029Z,24.50
2022-08-17T08:48:53.835Z,24.60
2022-08-17T08:51:22.401Z,24.70
2022-08-17T08:53:59.233Z,24.80
2022-08-17T08:56:38.410Z,24.80
2022-08-17T08:59:17.553Z,24.90
2022-08-17T09:01:56.277Z,25.00
2022-08-17T09:05:12.807Z,25.00
2022-08-17T09:07:44.913Z,25.00
2022-08-17T09:10:19.727Z,25.00
2022-08-17T09:12:54.846Z,25.00
2022-08-17T09:15:28.087Z,24.90
2022-08-17T09:19:01.292Z,24.90
2022-08-17T09:20:57.834Z,25.00
2022-08-17T09:23:34.054Z,25.00
2022-08-17T09:26:08.107Z,25.10
2022-08-17T09:28:38.380Z,25.20
2022-08-17T09:31:10.351Z,25.20
2022-08-17T09:33:51.324Z,25.30
2022-08-17T09:36:24.237Z,25.40
2022-08-17T09:38:59.014Z,25.50
2022-08-17T09:41:34.587Z,25.50
2022-08-17T09:44:22.592Z,25.60
2022-08-17T09:46:55.417Z,25.70
2022-08-17T09:49:31.558Z,25.80
2022-08-17T09:52:04.081Z,25.90
2022-08-17T09:54:39.889Z,26.10
2022-08-17T09:57:31.475Z,26.20
2022-08-17T10:00:16.868Z,26.30
2022-08-17T10:03:11.910Z,26.40
2022-08-17T10:05:47.210Z,26.50
2022-08-17T10:08:24.291Z,26.70
2022-08-17T10:11:06.963Z,26.70
2022-08-17T10:13:52.752Z,26.80
2022-08-17T10:16:27.186Z,26.70
2022-08-17T10:19:08.185Z,26.80
2022-08-17T10:22:00.924Z,26.80
2022-08-17T10:25:23.739Z,26.90
2022-08-17T10:27:56.638Z,27.00
2022-08-17T10:30:27.794Z,27.10
2022-08-17T10:32:59.243Z,27.10
2022-08-17T10:35:34.070Z,27.10
2022-08-17T10:38:32.479Z,27.10
2022-08-17T10:41:06.217Z,27.10
2022-08-17T10:43:55.760Z,27.10
2022-08-17T10:46:52.206Z,27.10
2022-08-17T10:49:30.427Z,27.10
2022-08-17T10:52:00.113Z,27.10
2022-08-17T10:54:47.653Z,27.10
2022-08-17T10:57:40.867Z,27.10
2022-08-17T11:00:16.011Z,27.10
2022-08-17T11:02:49.574Z,27.20
2022-08-17T11:05:43.671Z,27.20
2022-08-17T11:08:32.161Z,27.10
2022-08-17T11:11:14.881Z,27.20
2022-08-17T11:13:51.688Z,27.20
2022-08-17T11:16:41.996Z,27.20
2022-08-17T11:19:39.418Z,27.20
2022-08-17T11:22:44.456Z,27.40
2022-08-17T11:25:17.760Z,27.40
2022-08-17T11:27:54.287Z,27.40
2022-08-17T11:30:48.587Z,27.50
2022-08-17T11:33:57.800Z,27.50
2022-08-17T11:36:47.761Z,27.60
2022-08-17T11:39:40.861Z,27.70
2022-08-17T11:42:21.550Z,27.70
2022-08-17T11:44:57.425Z,27.90
2022-08-17T11:48:15.951Z,27.90
2022-08-17T11:51:05.598Z,27.90
2022-08-17T11:56:59.208Z,27.90
2022-08-17T11:59:58.621Z,28.00
2022-08-17T12:02:47.506Z,28.10
2022-08-17T12:05:33.002Z,28.10
2022-08-17T12:08:22.061Z,28.20
2022-08-17T12:10:59.289Z,28.20
2022-08-17T12:13:38.488Z,28.20
2022-08-17T12:16:10.360Z,28.20
2022-08-17T12:18:39.705Z,28.30
2022-08-17T12:21:23.288Z,28.40
2022-08-17T12:23:58.445Z,28.40
2022-08-17T12:26:30.408Z,28.40
2022-08-17T12:29:01.941Z,28.50
2022-08-17T12:31:36.317Z,28.50
2022-08-17T12:34:05.805Z,28.50
2022-08-17T12:36:34.842Z,28.50
2022-08-17T12:39:14.302Z,28.60
2022-08-17T12:41:46.923Z,28.60
2022-08-17T12:44:19.117Z,28.50
2022-08-17T12:46:54.459Z,28.50
2022-08-17T12:49:33.352Z,28.50
2022-08-17T12:52:10.033Z,28.50
2022-08-17T12:54:50.527Z,28.60
2022-08-17T12:57:23.719Z,28.60
2022-08-17T12:59:58.619Z,28.60
2022-08-17T13:02:39.795Z,28.70
2022-08-17T13:05:17.346Z,28.70
2022-08-17T13:07:46.818Z,28.80
2022-08-17T13:10:19.963Z,28.80
2022-08-17T13:12:50.981Z,28.80
2022-08-17T13:15:23.194Z,28.90
2022-08-17T13:18:04.060Z,29.00
2022-08-17T13:20:32.723Z,29.00
2022-08-17T13:23:07.524Z,29.10
2022-08-17T13:25:40.272Z,29.10
2022-08-17T13:28:18.910Z,29.10
2022-08-17T13:31:24.081Z,29.10
2022-08-17T13:33:53.558Z,29.10
2022-08-17T13:36:30.081Z,29.10
2022-08-17T13:39:08.626Z,29.20
2022-08-17T13:41:39.162Z,29.20
2022-08-17T13:44:30.897Z,29.20
2022-08-17T13:47:00.671Z,29.20
2022-08-17T13:49:41.814Z,29.30
2022-08-17T13:52:36.353Z,29.30
2022-08-17T13:55:10.102Z,29.40
2022-08-17T13:57:38.477Z,29.40
2022-08-17T14:00:17.314Z,29.50
2022-08-17T14:02:45.441Z,29.50
2022-08-17T14:05:14.965Z,29.60
2022-08-17T14:07:43.223Z,29.60
2022-08-17T14:10:15.691Z,29.60
2022-08-17T14:12:45.758Z,29.60
2022-08-17T14:15:16.373Z,29.60
2022-08-17T14:17:44.771Z,29.60
2022-08-17T14:20:15.487Z,29.60
2022-08-17T14:22:46.568Z,29.70
2022-08-17T14:25:16.593Z,29.70
2022-08-17T14:27:52.142Z,29.80
2022-08-17T14:30:24.271Z,29.80
2022-08-17T14:32:53.158Z,30.00
2022-08-17T14:35:25.450Z,30.30
2022-08-17T14:37:54.242Z,30.70
2022-08-17T14:40:24.671Z,31.10
2022-08-17T14:42:55.174Z,31.20
2022-08-17T14:45:29.979Z,31.00
2022-08-17T14:48:04.171Z,30.80
2022-08-17T14:50:35.504Z,30.90
2022-08-17T14:53:05.200Z,31.10
2022-08-17T14:55:33.523Z,31.30
2022-08-17T14:58:01.693Z,31.20
2022-08-17T15:00:29.820Z,30.90
2022-08-17T15:03:02.009Z,30.70
2022-08-17T15:05:33.686Z,30.40
2022-08-17T15:08:04.646Z,30.20
2022-08-17T15:10:33.767Z,29.90
2022-08-17T15:13:02.485Z,29.80
2022-08-17T15:15:31.580Z,29.70
2022-08-17T15:18:01.034Z,29.50
2022-08-17T15:20:30.940Z,29.50
2022-08-17T15:22:59.751Z,29.40
2022-08-17T15:25:31.905Z,29.40
2022-08-17T15:28:01.265Z,29.30
2022-08-17T15:30:30.322Z,29.20
2022-08-17T15:33:02.219Z,29.20
2022-08-17T15:35:34.186Z,29.20
2022-08-17T15:38:10.655Z,29.10
2022-08-17T15:40:45.192Z,29.10
2022-08-17T15:43:15.871Z,29.10
2022-08-17T15:45:44.346Z,29.10
2022-08-17T15:48:14.732Z,29.00
2022-08-17T15:50:43.360Z,28.90
2022-08-17T15:53:11.451Z,28.90
2022-08-17T15:55:43.982Z,28.90
2022-08-17T15:58:12.101Z,28.90
2022-08-17T16:00:53.188Z,28.80
2022-08-17T16:03:59.314Z,28.80
2022-08-17T16:06:18.426Z,28.80
2022-08-17T16:08:46.523Z,28.70
2022-08-17T16:11:18.843Z,28.70
2022-08-17T16:13:54.718Z,28.70
2022-08-17T16:16:24.630Z,28.70
2022-08-17T16:18:54.748Z,28.70
2022-08-17T16:21:29.632Z,28.70
2022-08-17T16:24:02.867Z,28.70
2022-08-17T16:26:34.045Z,28.70
2022-08-17T16:29:05.072Z,28.70
2022-08-17T16:31:36.001Z,28.70
2022-08-17T16:34:18.000Z,28.70
2022-08-17T16:36:55.150Z,28.70
2022-08-17T16:39:25.639Z,28.70
2022-08-17T16:41:55.995Z,28.70
2022-08-17T16:44:24.723Z,28.60
2022-08-17T16:46:53.420Z,28.60
2022-08-17T16:49:36.259Z,28.60
2022-08-17T16:52:07.862Z,28.60
2022-08-17T16:54:38.301Z,28.60
2022-08-17T16:57:07.899Z,28.50
2022-08-17T16:59:41.893Z,28.40
2022-08-17T17:02:14.310Z,28.30
2022-08-17T17:04:50.694Z,28.30
2022-08-17T17:07:35.429Z,28.30
2022-08-17T17:10:06.900Z,28.20
2022-08-17T17:13:02.329Z,28.20
2022-08-17T17:15:33.581Z,28.20
2022-08-17T17:18:07.239Z,28.10
2022-08-17T17:20:43.779Z,28.10
2022-08-17T17:23:19.749Z,28.00
2022-08-17T17:25:58.342Z,28.00
2022-08-17T17:28:38.347Z,27.90
2022-08-17T17:31:11.855Z,28.00
2022-08-17T17:33:47.778Z,27.90
2022-08-17T17:36:25.395Z,27.90
2022-08-17T17:38:57.294Z,27.80
2022-08-17T17:41:31.759Z,27.70
2022-08-17T17:44:07.949Z,27.70
2022-08-17T17:46:40.702Z,27.70
2022-08-17T17:49:11.202Z,27.60
2022-08-17T17:52:06.348Z,27.50
2022-08-17T17:54:49.172Z,27.50
2022-08-17T17:57:24.703Z,27.40
2022-08-17T18:00:02.227Z,27.30
2022-08-17T18:02:51.758Z,27.30
2022-08-17T18:05:43.910Z,27.20
2022-08-17T18:08:32.112Z,27.10
2022-08-17T18:11:11.416Z,27.10
2022-08-17T18:13:53.519Z,27.10
2022-08-17T18:16:23.513Z,27.00
2022-08-17T18:18:53.576Z,27.00
2022-08-17T18:21:24.607Z,26.90
2022-08-17T18:23:55.736Z,26.80
2022-08-17T18:26:58.735Z,26.80
2022-08-17T18:29:41.596Z,26.80
2022-08-17T18:32:32.862Z,26.70
2022-08-17T18:35:27.754Z,26.70
2022-08-17T18:37:58.783Z,26.70
2022-08-17T18:40:34.265Z,26.70
2022-08-17T18:43:13.041Z,26.70
2022-08-17T18:45:53.391Z,26.70
2022-08-17T18:48:27.963Z,26.60
2022-08-17T18:50:58.854Z,26.60
2022-08-17T18:53:34.646Z,26.50
2022-08-17T18:56:27.969Z,26.50
2022-08-17T18:59:11.101Z,26.50
2022-08-17T19:01:53.288Z,26.40
2022-08-17T19:04:37.061Z,26.40
2022-08-17T19:07:24.681Z,26.30
2022-08-17T19:09:56.980Z,26.30
2022-08-17T19:12:31.725Z,26.40
2022-08-17T19:15:01.618Z,26.20
2022-08-17T19:17:42.549Z,26.30
2022-08-17T19:20:19.777Z,26.20
2022-08-17T19:23:01.582Z,26.10
2022-08-17T19:25:33.633Z,26.10
2022-08-17T19:28:21.515Z,26.10
2022-08-17T19:30:55.763Z,26.20
2022-08-17T19:33:24.315Z,26.10
2022-08-17T19:36:02.189Z,26.10
2022-08-17T19:38:42.906Z,26.10
2022-08-17T19:41:18.787Z,26.20
2022-08-17T19:43:58.869Z,26.20
2022-08-17T19:46:36.350Z,26.10
2022-08-17T19:49:14.737Z,26.10
2022-08-17T19:51:48.821Z,26.10
2022-08-17T19:54:24.798Z,26.00
2022-08-17T19:57:05.909Z,26.00
2022-08-17T19:59:49.110Z,26.00
2022-08-17T20:02:29.610Z,26.00
2022-08-17T20:05:02.772Z,26.00
2022-08-17T20:07:41.925Z,26.00
2022-08-17T20:10:14.671Z,26.00
2022-08-17T20:12:45.400Z,25.90
2022-08-17T20:15:21.851Z,25.80
2022-08-17T20:17:50.601Z,25.70
2022-08-17T20:20:29.731Z,25.80
2022-08-17T20:23:06.788Z,25.80
2022-08-17T20:25:40.353Z,25.80
2022-08-17T20:28:21.111Z,25.70
2022-08-17T20:30:49.190Z,25.70
2022-08-17T20:33:26.449Z,25.60
2022-08-17T20:36:17.721Z,25.60
2022-08-17T20:38:52.206Z,25.60
2022-08-17T20:41:22.526Z,25.50
2022-08-17T20:44:03.577Z,25.40
2022-08-17T20:46:52.689Z,25.50
2022-08-17T20:49:27.145Z,25.50
2022-08-17T20:52:02.418Z,25.40
2022-08-17T20:54:51.401Z,25.40
2022-08-17T20:57:45.689Z,25.40
2022-08-17T21:00:35.408Z,25.20
2022-08-17T21:03:49.138Z,25.20
2022-08-17T21:06:22.064Z,25.20
2022-08-17T21:08:58.023Z,25.10
2022-08-17T21:11:56.766Z,25.00
2022-08-17T21:14:56.471Z,25.00
2022-08-17T21:17:51.600Z,25.00
2022-08-17T21:20:33.189Z,25.00
2022-08-17T21:23:38.450Z,24.90
2022-08-17T21:26:18.660Z,24.90
2022-08-17T21:29:29.523Z,24.80
2022-08-17T21:32:18.503Z,24.80
2022-08-17T21:35:30.417Z,24.70
2022-08-17T21:38:05.149Z,24.70
2022-08-17T21:40:34.962Z,24.60
2022-08-17T21:43:24.106Z,24.60
2022-08-17T21:46:03.568Z,24.60
2022-08-17T21:48:41.372Z,24.50
2022-08-17T21:51:13.253Z,24.40
2022-08-17T21:53:45.859Z,24.40
2022-08-17T21:56:22.105Z,24.40
2022-08-17T21:59:00.317Z,24.40
2022-08-17T22:01:31.605Z,24.40
2022-08-17T22:04:04.334Z,24.40
2022-08-17T22:06:37.589Z,24.30
2022-08-17T22:09:17.340Z,24.20
2022-08-17T22:11:59.961Z,24.20
2022-08-17T22:14:52.888Z,24.20
2022-08-17T22:17:25.403Z,24.10
2022-08-17T22:19:55.873Z,24.10
2022-08-17T22:22:28.136Z,24.10
2022-08-17T22:24:57.996Z,24.10
2022-08-17T22:27:48.684Z,24.00
2022-08-17T22:30:39.357Z,23.90
2022-08-17T22:33:31.986Z,23.70
2022-08-17T22:36:12.354Z,23.70
2022-08-17T22:38:43.634Z,23.70
2022-08-17T22:41:43.606Z,23.70
2022-08-17T22:44:24.704Z,23.70
2022-08-17T22:47:02.590Z,23.60
2022-08-17T22:49:53.566Z,23.60
2022-08-17T22:52:33.287Z,23.60
2022-08-17T22:55:23.770Z,23.60
2022-08-17T22:58:09.786Z,23.50
2022-08-17T23:00:41.119Z,23.50
2022-08-17T23:03:15.777Z,23.30
2022-08-17T23:05:47.842Z,23.30
2022-08-17T23:08:21.357Z,23.30
2022-08-17T23:10:50.304Z,23.30
2022-08-17T23:13:18.450Z,23.30
2022-08-17T23:15:48.174Z,23.20
2022-08-17T23:18:17.859Z,23.20
2022-08-17T23:20:47.835Z,23.20
2022-08-17T23:23:18.012Z,23.20
2022-08-17T23:25:49.401Z,23.10
2022-08-17T23:28:17.500Z,23.10
2022-08-17T23:30:46.645Z,23.10
2022-08-17T23:33:31.903Z,23.10
2022-08-17T23:36:01.966Z,23.00
2022-08-17T23:38:31.922Z,23.00
2022-08-17T23:41:04.424Z,23.00
2022-08-17T23:43:32.679Z,23.00
2022-08-17T23:46:03.622Z,22.90
2022-08-17T23:48:35.592Z,22.90
2022-08-17T23:51:09.538Z,22.90
2022-08-17T23:53:42.015Z,22.90
2022-08-17T23:56:11.671Z,22.90
2022-08-17T23:58:42.212Z,22.80
